메인 페이지
METAR-TAF:

METAR-TAF

공항 :

디레다와, 에티오피아

위도: 09-36N, 경도: 041-52E, 고도: 1146m

현재 날씨관측

예보는 18 시간 24분 전, 15:00시(UTC)에 발표되었습니다.
북북동9kt
온도 23°C
습도 83%
기압 1016 hPa
시정: 8000m
고도 2700ft 상공 구름 많음
고도 5600ft 상공 구름 많음

METAR: HADR 201500Z 02009KT 8000 TS.RA FEWCB026 BKN027 BKN056 23/20 Q1016

시각: 12:24 (09:24 UTC)

예보

예보는 29 시간 24분 전, 04:00시(UTC)에 발표되었습니다.
예보 대상 시간: 20일 06시부터 21일 12시까지 (UTC)
북서6kt
시정 10km 이상
고도 2500ft 상공 구름 보통
고도 8000ft 상공 구름 조금
전환 중
20일 09시부터 20일 12시까지 (UTC)
북북서8kt
고도 3000ft 상공 구름 보통
전환 중
20일 15시부터 20일 1시까지 (UTC)
10kt
고도 2500ft 상공 구름 보통
고도 8000ft 상공 구름 조금

TAF: HADR 200400Z 2006/2112 32006KT 9999 SCT025 FEW080 BECMG 2009/2012 34008KT SCT030 BECMG 2015/201 36010KT SCT025 FEW080

4,000개 이상의 공항 관측 자료 및 예보 (METAR 및 TAF 보고).

지도상에서 검색 가능한 기상관측소가 노란 점과 빨간 점으로 표시되어 있습니다.

기상관측소 명을 보려면 표시 위로 마우스를 이동하세요.

날씨 관측과 예보를 보려면 클릭하세요.

지도 변경 : 확대하려면 엑스 표시가 있는 녹색 버튼, 축소하려면 빼기 표시가 있는 녹색 버튼, 다음 페이지의 지도를 보려면 녹색 화살표를 클릭하세요.


METAR-TAF: